sensor_id;sensor_type;location;lat;lon;timestamp;temperature;humidity
10572;DHT22;5334;48.928;12.704;2022-07-29T00:02:28;21.50;99.90
10572;DHT22;5334;48.928;12.704;2022-07-29T00:04:54;21.50;99.90
10572;DHT22;5334;48.928;12.704;2022-07-29T00:07:20;21.50;99.90
10572;DHT22;5334;48.928;12.704;2022-07-29T00:09:45;21.50;99.90
10572;DHT22;5334;48.928;12.704;2022-07-29T00:12:11;21.40;99.90
10572;DHT22;5334;48.928;12.704;2022-07-29T00:14:37;21.40;99.90
10572;DHT22;5334;48.928;12.704;2022-07-29T00:17:02;21.30;99.90
10572;DHT22;5334;48.928;12.704;2022-07-29T00:19:28;21.30;99.90
10572;DHT22;5334;48.928;12.704;2022-07-29T00:21:54;21.20;99.90
10572;DHT22;5334;48.928;12.704;2022-07-29T00:24:20;21.20;99.90
10572;DHT22;5334;48.928;12.704;2022-07-29T00:26:45;21.20;99.90
10572;DHT22;5334;48.928;12.704;2022-07-29T00:29:11;21.10;99.90
10572;DHT22;5334;48.928;12.704;2022-07-29T00:31:37;21.10;99.90
10572;DHT22;5334;48.928;12.704;2022-07-29T00:34:03;21.10;99.90
10572;DHT22;5334;48.928;12.704;2022-07-29T00:36:28;21.00;99.90
10572;DHT22;5334;48.928;12.704;2022-07-29T00:38:54;21.00;99.90
10572;DHT22;5334;48.928;12.704;2022-07-29T00:41:20;20.90;99.90
10572;DHT22;5334;48.928;12.704;2022-07-29T00:43:46;21.00;99.90
10572;DHT22;5334;48.928;12.704;2022-07-29T00:46:12;20.90;99.90
10572;DHT22;5334;48.928;12.704;2022-07-29T00:48:37;20.90;99.90
10572;DHT22;5334;48.928;12.704;2022-07-29T00:51:05;20.80;99.90
10572;DHT22;5334;48.928;12.704;2022-07-29T00:53:31;20.80;99.90
10572;DHT22;5334;48.928;12.704;2022-07-29T00:55:58;20.80;99.90
10572;DHT22;5334;48.928;12.704;2022-07-29T00:58:24;20.80;99.90
10572;DHT22;5334;48.928;12.704;2022-07-29T01:00:52;20.70;99.90
10572;DHT22;5334;48.928;12.704;2022-07-29T01:03:18;20.80;99.90
10572;DHT22;5334;48.928;12.704;2022-07-29T01:05:45;20.70;99.90
10572;DHT22;5334;48.928;12.704;2022-07-29T01:08:15;20.70;99.90
10572;DHT22;5334;48.928;12.704;2022-07-29T01:10:41;20.60;99.90
10572;DHT22;5334;48.928;12.704;2022-07-29T01:13:09;20.60;99.90
10572;DHT22;5334;48.928;12.704;2022-07-29T01:15:44;20.50;99.90
10572;DHT22;5334;48.928;12.704;2022-07-29T01:29:30;20.40;99.90
10572;DHT22;5334;48.928;12.704;2022-07-29T01:32:15;20.40;99.90
10572;DHT22;5334;48.928;12.704;2022-07-29T01:35:06;20.40;99.90
10572;DHT22;5334;48.928;12.704;2022-07-29T01:37:55;20.40;99.90
10572;DHT22;5334;48.928;12.704;2022-07-29T01:40:45;20.40;99.90
10572;DHT22;5334;48.928;12.704;2022-07-29T01:43:15;20.40;99.90
10572;DHT22;5334;48.928;12.704;2022-07-29T01:46:00;20.40;99.90
10572;DHT22;5334;48.928;12.704;2022-07-29T01:48:49;20.30;99.90
10572;DHT22;5334;48.928;12.704;2022-07-29T01:51:25;20.20;99.90
10572;DHT22;5334;48.928;12.704;2022-07-29T01:54:04;20.20;99.90
10572;DHT22;5334;48.928;12.704;2022-07-29T01:56:32;20.20;99.90
10572;DHT22;5334;48.928;12.704;2022-07-29T01:58:59;20.20;99.90
10572;DHT22;5334;48.928;12.704;2022-07-29T02:01:27;20.20;99.90
10572;DHT22;5334;48.928;12.704;2022-07-29T02:03:56;20.20;99.90
10572;DHT22;5334;48.928;12.704;2022-07-29T02:06:23;20.20;99.90
10572;DHT22;5334;48.928;12.704;2022-07-29T02:08:51;20.30;99.90
10572;DHT22;5334;48.928;12.704;2022-07-29T02:13:44;20.30;99.90
10572;DHT22;5334;48.928;12.704;2022-07-29T02:18:39;19.90;99.90
10572;DHT22;5334;48.928;12.704;2022-07-29T02:21:06;19.90;99.90
10572;DHT22;5334;48.928;12.704;2022-07-29T02:23:35;19.90;99.90
10572;DHT22;5334;48.928;12.704;2022-07-29T02:26:01;20.00;99.90
10572;DHT22;5334;48.928;12.704;2022-07-29T02:28:29;20.00;99.90
10572;DHT22;5334;48.928;12.704;2022-07-29T02:31:00;20.00;99.90
10572;DHT22;5334;48.928;12.704;2022-07-29T02:33:27;20.00;99.90
10572;DHT22;5334;48.928;12.704;2022-07-29T02:35:56;19.90;99.90
10572;DHT22;5334;48.928;12.704;2022-07-29T02:38:25;19.80;99.90
10572;DHT22;5334;48.928;12.704;2022-07-29T02:41:13;19.80;99.90
10572;DHT22;5334;48.928;12.704;2022-07-29T02:43:41;19.90;99.90
10572;DHT22;5334;48.928;12.704;2022-07-29T02:46:13;20.00;99.90
10572;DHT22;5334;48.928;12.704;2022-07-29T02:48:47;20.00;99.90
10572;DHT22;5334;48.928;12.704;2022-07-29T02:51:19;20.00;99.90
10572;DHT22;5334;48.928;12.704;2022-07-29T02:53:51;20.00;99.90
10572;DHT22;5334;48.928;12.704;2022-07-29T02:56:23;20.00;99.90
10572;DHT22;5334;48.928;12.704;2022-07-29T02:58:55;20.00;99.90
10572;DHT22;5334;48.928;12.704;2022-07-29T03:01:23;19.90;99.90
10572;DHT22;5334;48.928;12.704;2022-07-29T03:03:51;19.90;99.90
10572;DHT22;5334;48.928;12.704;2022-07-29T03:06:20;20.00;99.90
10572;DHT22;5334;48.928;12.704;2022-07-29T03:08:46;20.10;99.90
10572;DHT22;5334;48.928;12.704;2022-07-29T03:11:13;20.10;99.90
10572;DHT22;5334;48.928;12.704;2022-07-29T03:13:40;20.20;99.90
10572;DHT22;5334;48.928;12.704;2022-07-29T03:16:07;20.10;99.90
10572;DHT22;5334;48.928;12.704;2022-07-29T03:18:34;20.00;99.90
10572;DHT22;5334;48.928;12.704;2022-07-29T03:21:00;19.90;99.90
10572;DHT22;5334;48.928;12.704;2022-07-29T03:23:26;19.80;99.90
10572;DHT22;5334;48.928;12.704;2022-07-29T03:25:53;19.80;99.90
10572;DHT22;5334;48.928;12.704;2022-07-29T03:28:19;19.90;99.90
10572;DHT22;5334;48.928;12.704;2022-07-29T03:30:46;19.80;99.90
10572;DHT22;5334;48.928;12.704;2022-07-29T03:33:12;19.80;99.90
10572;DHT22;5334;48.928;12.704;2022-07-29T03:35:38;19.80;99.90
10572;DHT22;5334;48.928;12.704;2022-07-29T03:38:04;19.70;99.90
10572;DHT22;5334;48.928;12.704;2022-07-29T03:40:46;19.70;99.90
10572;DHT22;5334;48.928;12.704;2022-07-29T03:43:15;19.70;99.90
10572;DHT22;5334;48.928;12.704;2022-07-29T03:45:45;19.60;99.90
10572;DHT22;5334;48.928;12.704;2022-07-29T03:48:15;19.60;99.90
10572;DHT22;5334;48.928;12.704;2022-07-29T03:50:42;19.70;99.90
10572;DHT22;5334;48.928;12.704;2022-07-29T03:53:09;19.90;99.90
10572;DHT22;5334;48.928;12.704;2022-07-29T03:55:41;20.00;99.90
10572;DHT22;5334;48.928;12.704;2022-07-29T03:58:07;20.10;99.90
10572;DHT22;5334;48.928;12.704;2022-07-29T04:00:34;20.10;99.90
10572;DHT22;5334;48.928;12.704;2022-07-29T04:03:03;20.10;99.90
10572;DHT22;5334;48.928;12.704;2022-07-29T04:05:29;20.10;99.90
10572;DHT22;5334;48.928;12.704;2022-07-29T04:07:54;20.10;99.90
10572;DHT22;5334;48.928;12.704;2022-07-29T04:10:20;20.10;99.90
10572;DHT22;5334;48.928;12.704;2022-07-29T04:12:46;20.00;99.90
10572;DHT22;5334;48.928;12.704;2022-07-29T04:15:12;19.90;99.90
10572;DHT22;5334;48.928;12.704;2022-07-29T04:17:38;19.90;99.90
10572;DHT22;5334;48.928;12.704;2022-07-29T04:20:04;19.90;99.90
10572;DHT22;5334;48.928;12.704;2022-07-29T04:22:30;19.90;99.90
10572;DHT22;5334;48.928;12.704;2022-07-29T04:24:56;19.90;99.90
10572;DHT22;5334;48.928;12.704;2022-07-29T04:27:22;19.90;99.90
10572;DHT22;5334;48.928;12.704;2022-07-29T04:29:47;19.90;99.90
10572;DHT22;5334;48.928;12.704;2022-07-29T04:32:13;19.90;99.90
10572;DHT22;5334;48.928;12.704;2022-07-29T04:34:39;20.00;99.90
10572;DHT22;5334;48.928;12.704;2022-07-29T04:37:04;20.00;99.90
10572;DHT22;5334;48.928;12.704;2022-07-29T04:39:30;20.20;99.90
10572;DHT22;5334;48.928;12.704;2022-07-29T04:41:55;20.30;99.90
10572;DHT22;5334;48.928;12.704;2022-07-29T04:44:21;20.40;99.90
10572;DHT22;5334;48.928;12.704;2022-07-29T04:46:47;20.50;99.90
10572;DHT22;5334;48.928;12.704;2022-07-29T04:49:13;20.60;99.90
10572;DHT22;5334;48.928;12.704;2022-07-29T04:51:38;20.60;99.90
10572;DHT22;5334;48.928;12.704;2022-07-29T04:54:04;20.70;99.90
10572;DHT22;5334;48.928;12.704;2022-07-29T04:56:30;20.80;99.90
10572;DHT22;5334;48.928;12.704;2022-07-29T04:58:55;20.80;99.90
10572;DHT22;5334;48.928;12.704;2022-07-29T05:01:21;20.80;99.90
10572;DHT22;5334;48.928;12.704;2022-07-29T05:03:47;20.70;99.90
10572;DHT22;5334;48.928;12.704;2022-07-29T05:06:13;20.60;99.90
10572;DHT22;5334;48.928;12.704;2022-07-29T05:08:39;20.60;99.90
10572;DHT22;5334;48.928;12.704;2022-07-29T05:11:04;20.60;99.90
10572;DHT22;5334;48.928;12.704;2022-07-29T05:13:30;20.60;99.90
10572;DHT22;5334;48.928;12.704;2022-07-29T05:15:56;20.50;99.90
10572;DHT22;5334;48.928;12.704;2022-07-29T05:18:24;20.50;99.90
10572;DHT22;5334;48.928;12.704;2022-07-29T05:20:50;20.70;99.90
10572;DHT22;5334;48.928;12.704;2022-07-29T05:23:15;20.80;99.90
10572;DHT22;5334;48.928;12.704;2022-07-29T05:25:41;20.90;99.90
10572;DHT22;5334;48.928;12.704;2022-07-29T05:28:07;21.10;99.90
10572;DHT22;5334;48.928;12.704;2022-07-29T05:30:32;21.20;99.90
10572;DHT22;5334;48.928;12.704;2022-07-29T05:32:58;21.30;99.90
10572;DHT22;5334;48.928;12.704;2022-07-29T05:35:23;21.50;99.90
10572;DHT22;5334;48.928;12.704;2022-07-29T05:37:49;21.60;99.90
10572;DHT22;5334;48.928;12.704;2022-07-29T05:40:15;21.70;99.90
10572;DHT22;5334;48.928;12.704;2022-07-29T05:42:41;21.80;99.90
10572;DHT22;5334;48.928;12.704;2022-07-29T05:45:07;21.90;99.90
10572;DHT22;5334;48.928;12.704;2022-07-29T05:47:33;22.10;99.90
10572;DHT22;5334;48.928;12.704;2022-07-29T05:49:59;22.20;99.90
10572;DHT22;5334;48.928;12.704;2022-07-29T05:52:25;22.10;99.90
10572;DHT22;5334;48.928;12.704;2022-07-29T05:54:51;22.10;99.90
10572;DHT22;5334;48.928;12.704;2022-07-29T05:57:21;22.10;99.90
10572;DHT22;5334;48.928;12.704;2022-07-29T05:59:48;22.10;99.90
10572;DHT22;5334;48.928;12.704;2022-07-29T06:02:14;22.10;99.90
10572;DHT22;5334;48.928;12.704;2022-07-29T06:04:40;22.10;99.90
10572;DHT22;5334;48.928;12.704;2022-07-29T06:07:06;22.10;99.90
10572;DHT22;5334;48.928;12.704;2022-07-29T06:09:32;22.20;99.90
10572;DHT22;5334;48.928;12.704;2022-07-29T06:11:58;22.50;99.90
10572;DHT22;5334;48.928;12.704;2022-07-29T06:14:24;22.60;99.90
10572;DHT22;5334;48.928;12.704;2022-07-29T06:16:50;22.70;99.90
10572;DHT22;5334;48.928;12.704;2022-07-29T06:19:16;22.60;99.90
10572;DHT22;5334;48.928;12.704;2022-07-29T06:21:43;22.60;99.90
10572;DHT22;5334;48.928;12.704;2022-07-29T06:24:10;22.60;99.90
10572;DHT22;5334;48.928;12.704;2022-07-29T06:26:37;22.60;99.90
10572;DHT22;5334;48.928;12.704;2022-07-29T06:29:03;22.50;99.90
10572;DHT22;5334;48.928;12.704;2022-07-29T06:31:29;22.50;99.90
10572;DHT22;5334;48.928;12.704;2022-07-29T06:33:54;22.40;99.90
10572;DHT22;5334;48.928;12.704;2022-07-29T06:36:20;22.40;99.90
10572;DHT22;5334;48.928;12.704;2022-07-29T06:38:46;22.50;99.90
10572;DHT22;5334;48.928;12.704;2022-07-29T06:41:11;22.40;99.90
10572;DHT22;5334;48.928;12.704;2022-07-29T06:43:42;22.50;99.90
10572;DHT22;5334;48.928;12.704;2022-07-29T06:46:13;22.40;99.90
10572;DHT22;5334;48.928;12.704;2022-07-29T06:48:40;22.40;99.90
10572;DHT22;5334;48.928;12.704;2022-07-29T06:51:06;22.40;99.90
10572;DHT22;5334;48.928;12.704;2022-07-29T06:53:32;22.40;99.90
10572;DHT22;5334;48.928;12.704;2022-07-29T06:55:59;22.40;99.90
10572;DHT22;5334;48.928;12.704;2022-07-29T06:58:29;22.40;99.90
10572;DHT22;5334;48.928;12.704;2022-07-29T07:00:56;22.40;99.90
10572;DHT22;5334;48.928;12.704;2022-07-29T07:03:22;22.40;99.90
10572;DHT22;5334;48.928;12.704;2022-07-29T07:05:50;22.60;99.90
10572;DHT22;5334;48.928;12.704;2022-07-29T07:08:16;22.70;99.90
10572;DHT22;5334;48.928;12.704;2022-07-29T07:10:43;22.80;99.90
10572;DHT22;5334;48.928;12.704;2022-07-29T07:13:09;23.00;99.90
10572;DHT22;5334;48.928;12.704;2022-07-29T07:15:36;23.50;99.90
10572;DHT22;5334;48.928;12.704;2022-07-29T07:18:02;23.70;99.90
10572;DHT22;5334;48.928;12.704;2022-07-29T07:20:28;23.90;99.90
10572;DHT22;5334;48.928;12.704;2022-07-29T07:22:54;24.20;99.90
10572;DHT22;5334;48.928;12.704;2022-07-29T07:25:20;24.20;99.90
10572;DHT22;5334;48.928;12.704;2022-07-29T07:27:45;23.90;99.90
10572;DHT22;5334;48.928;12.704;2022-07-29T07:30:12;24.00;99.90
10572;DHT22;5334;48.928;12.704;2022-07-29T07:32:38;24.30;99.90
10572;DHT22;5334;48.928;12.704;2022-07-29T07:35:05;24.60;99.90
10572;DHT22;5334;48.928;12.704;2022-07-29T07:37:31;25.00;99.90
10572;DHT22;5334;48.928;12.704;2022-07-29T07:39:57;25.10;99.90
10572;DHT22;5334;48.928;12.704;2022-07-29T07:42:23;24.90;99.90
10572;DHT22;5334;48.928;12.704;2022-07-29T07:44:49;25.00;99.90
10572;DHT22;5334;48.928;12.704;2022-07-29T07:47:15;25.30;99.90
10572;DHT22;5334;48.928;12.704;2022-07-29T07:49:46;25.60;99.90
10572;DHT22;5334;48.928;12.704;2022-07-29T07:52:12;25.90;99.90
10572;DHT22;5334;48.928;12.704;2022-07-29T07:54:38;25.90;99.90
10572;DHT22;5334;48.928;12.704;2022-07-29T07:57:03;25.90;99.90
10572;DHT22;5334;48.928;12.704;2022-07-29T07:59:29;25.80;99.90
10572;DHT22;5334;48.928;12.704;2022-07-29T08:04:20;25.20;99.90
10572;DHT22;5334;48.928;12.704;2022-07-29T08:06:46;24.80;99.90
10572;DHT22;5334;48.928;12.704;2022-07-29T08:09:12;24.70;99.90
10572;DHT22;5334;48.928;12.704;2022-07-29T08:11:37;25.10;99.90
10572;DHT22;5334;48.928;12.704;2022-07-29T08:14:03;25.60;99.90
10572;DHT22;5334;48.928;12.704;2022-07-29T08:16:29;26.00;99.90
10572;DHT22;5334;48.928;12.704;2022-07-29T08:18:54;26.40;99.60
10572;DHT22;5334;48.928;12.704;2022-07-29T08:21:24;26.50;98.90
10572;DHT22;5334;48.928;12.704;2022-07-29T08:23:50;26.60;98.80
10572;DHT22;5334;48.928;12.704;2022-07-29T08:26:43;26.40;98.50
10572;DHT22;5334;48.928;12.704;2022-07-29T08:29:09;26.30;98.60
10572;DHT22;5334;48.928;12.704;2022-07-29T08:31:36;26.40;99.00
10572;DHT22;5334;48.928;12.704;2022-07-29T08:34:03;26.90;98.60
10572;DHT22;5334;48.928;12.704;2022-07-29T08:36:29;27.30;97.90
10572;DHT22;5334;48.928;12.704;2022-07-29T08:38:56;27.40;97.80
10572;DHT22;5334;48.928;12.704;2022-07-29T08:41:22;27.50;96.80
10572;DHT22;5334;48.928;12.704;2022-07-29T08:43:49;27.50;97.40
10572;DHT22;5334;48.928;12.704;2022-07-29T08:46:15;27.70;97.40
10572;DHT22;5334;48.928;12.704;2022-07-29T08:48:42;27.90;96.70
10572;DHT22;5334;48.928;12.704;2022-07-29T08:51:08;28.20;96.40
10572;DHT22;5334;48.928;12.704;2022-07-29T08:56:06;28.20;95.40
10572;DHT22;5334;48.928;12.704;2022-07-29T08:58:33;28.50;95.40
10572;DHT22;5334;48.928;12.704;2022-07-29T09:01:01;28.60;95.50
10572;DHT22;5334;48.928;12.704;2022-07-29T09:03:31;28.80;95.10
10572;DHT22;5334;48.928;12.704;2022-07-29T09:05:58;28.60;94.50
10572;DHT22;5334;48.928;12.704;2022-07-29T09:08:25;28.50;94.70
10572;DHT22;5334;48.928;12.704;2022-07-29T09:10:51;28.60;94.90
10572;DHT22;5334;48.928;12.704;2022-07-29T09:13:17;29.00;94.20
10572;DHT22;5334;48.928;12.704;2022-07-29T09:15:44;29.50;93.80
10572;DHT22;5334;48.928;12.704;2022-07-29T09:18:09;29.40;92.90
10572;DHT22;5334;48.928;12.704;2022-07-29T09:25:47;30.40;91.90
10572;DHT22;5334;48.928;12.704;2022-07-29T09:28:14;30.70;91.90
10572;DHT22;5334;48.928;12.704;2022-07-29T09:30:55;30.80;91.10
10572;DHT22;5334;48.928;12.704;2022-07-29T09:33:22;31.20;91.60
10572;DHT22;5334;48.928;12.704;2022-07-29T09:36:05;31.50;90.70
10572;DHT22;5334;48.928;12.704;2022-07-29T09:38:32;31.40;89.30
10572;DHT22;5334;48.928;12.704;2022-07-29T09:41:01;30.80;89.50
10572;DHT22;5334;48.928;12.704;2022-07-29T09:43:27;30.60;90.30
10572;DHT22;5334;48.928;12.704;2022-07-29T09:46:09;30.70;90.20
10572;DHT22;5334;48.928;12.704;2022-07-29T09:48:36;30.60;89.10
10572;DHT22;5334;48.928;12.704;2022-07-29T09:51:02;30.70;88.60
10572;DHT22;5334;48.928;12.704;2022-07-29T09:53:36;31.10;88.90
10572;DHT22;5334;48.928;12.704;2022-07-29T09:56:03;31.40;88.30
10572;DHT22;5334;48.928;12.704;2022-07-29T09:58:29;31.70;87.50
10572;DHT22;5334;48.928;12.704;2022-07-29T10:00:56;31.90;86.20
10572;DHT22;5334;48.928;12.704;2022-07-29T10:03:22;32.10;85.80
10572;DHT22;5334;48.928;12.704;2022-07-29T10:06:05;32.10;84.30
10572;DHT22;5334;48.928;12.704;2022-07-29T10:08:31;32.00;84.80
10572;DHT22;5334;48.928;12.704;2022-07-29T10:11:10;31.40;82.90
10572;DHT22;5334;48.928;12.704;2022-07-29T10:13:36;30.80;83.80
10572;DHT22;5334;48.928;12.704;2022-07-29T10:16:02;30.50;84.70
10572;DHT22;5334;48.928;12.704;2022-07-29T10:18:28;30.50;83.60
10572;DHT22;5334;48.928;12.704;2022-07-29T10:20:54;30.70;82.90
10572;DHT22;5334;48.928;12.704;2022-07-29T10:23:21;30.70;83.20
10572;DHT22;5334;48.928;12.704;2022-07-29T10:25:47;30.80;83.80
10572;DHT22;5334;48.928;12.704;2022-07-29T10:28:12;31.10;84.60
10572;DHT22;5334;48.928;12.704;2022-07-29T10:30:39;31.60;84.30
10572;DHT22;5334;48.928;12.704;2022-07-29T10:33:21;31.80;82.00
10572;DHT22;5334;48.928;12.704;2022-07-29T10:43:58;31.90;79.30
10572;DHT22;5334;48.928;12.704;2022-07-29T10:46:25;31.40;79.70
10572;DHT22;5334;48.928;12.704;2022-07-29T10:49:11;31.10;79.40
10572;DHT22;5334;48.928;12.704;2022-07-29T10:52:02;31.10;80.50
10572;DHT22;5334;48.928;12.704;2022-07-29T10:54:42;31.10;79.50
10572;DHT22;5334;48.928;12.704;2022-07-29T10:57:29;31.00;80.90
10572;DHT22;5334;48.928;12.704;2022-07-29T11:05:05;30.70;82.40
10572;DHT22;5334;48.928;12.704;2022-07-29T11:07:34;31.20;81.60
10572;DHT22;5334;48.928;12.704;2022-07-29T11:15:15;32.00;79.50
10572;DHT22;5334;48.928;12.704;2022-07-29T11:34:25;31.60;73.80
10572;DHT22;5334;48.928;12.704;2022-07-29T11:39:46;31.00;75.70
10572;DHT22;5334;48.928;12.704;2022-07-29T11:45:03;31.40;74.60
10572;DHT22;5334;48.928;12.704;2022-07-29T11:47:31;31.10;75.80
10572;DHT22;5334;48.928;12.704;2022-07-29T11:49:59;30.70;77.80
10572;DHT22;5334;48.928;12.704;2022-07-29T11:52:38;30.50;78.20
10572;DHT22;5334;48.928;12.704;2022-07-29T11:55:17;30.60;76.80
10572;DHT22;5334;48.928;12.704;2022-07-29T11:57:47;30.60;77.80
10572;DHT22;5334;48.928;12.704;2022-07-29T12:00:25;30.80;78.40
10572;DHT22;5334;48.928;12.704;2022-07-29T12:02:52;31.00;76.30
10572;DHT22;5334;48.928;12.704;2022-07-29T12:05:18;31.40;74.90
10572;DHT22;5334;48.928;12.704;2022-07-29T12:07:44;32.30;75.50
10572;DHT22;5334;48.928;12.704;2022-07-29T12:10:10;32.60;74.20
10572;DHT22;5334;48.928;12.704;2022-07-29T12:12:36;32.40;72.50
10572;DHT22;5334;48.928;12.704;2022-07-29T12:15:17;32.10;72.60
10572;DHT22;5334;48.928;12.704;2022-07-29T12:17:45;31.50;72.20
10572;DHT22;5334;48.928;12.704;2022-07-29T12:20:11;31.70;74.00
10572;DHT22;5334;48.928;12.704;2022-07-29T12:22:41;32.30;73.30
10572;DHT22;5334;48.928;12.704;2022-07-29T12:25:13;32.60;71.60
10572;DHT22;5334;48.928;12.704;2022-07-29T12:27:44;33.10;70.00
10572;DHT22;5334;48.928;12.704;2022-07-29T12:30:12;33.30;69.70
10572;DHT22;5334;48.928;12.704;2022-07-29T12:32:43;33.50;68.80
10572;DHT22;5334;48.928;12.704;2022-07-29T12:35:14;33.60;69.30
10572;DHT22;5334;48.928;12.704;2022-07-29T12:37:43;33.70;67.40
10572;DHT22;5334;48.928;12.704;2022-07-29T12:40:11;33.50;68.50
10572;DHT22;5334;48.928;12.704;2022-07-29T12:42:38;32.60;68.10
10572;DHT22;5334;48.928;12.704;2022-07-29T12:45:05;32.00;69.10
10572;DHT22;5334;48.928;12.704;2022-07-29T12:47:31;31.80;70.70
10572;DHT22;5334;48.928;12.704;2022-07-29T12:50:14;31.50;70.30
10572;DHT22;5334;48.928;12.704;2022-07-29T12:52:45;31.00;71.50
10572;DHT22;5334;48.928;12.704;2022-07-29T12:55:11;30.80;71.50
10572;DHT22;5334;48.928;12.704;2022-07-29T12:57:50;30.70;72.70
10572;DHT22;5334;48.928;12.704;2022-07-29T13:00:22;30.50;72.80
10572;DHT22;5334;48.928;12.704;2022-07-29T13:02:58;30.10;74.20
10572;DHT22;5334;48.928;12.704;2022-07-29T13:05:42;29.90;75.00
10572;DHT22;5334;48.928;12.704;2022-07-29T13:08:15;29.80;75.90
10572;DHT22;5334;48.928;12.704;2022-07-29T13:10:41;29.60;76.60
10572;DHT22;5334;48.928;12.704;2022-07-29T13:13:12;29.30;76.70
10572;DHT22;5334;48.928;12.704;2022-07-29T13:15:43;29.00;78.80
10572;DHT22;5334;48.928;12.704;2022-07-29T13:18:31;28.80;79.40
10572;DHT22;5334;48.928;12.704;2022-07-29T13:20:57;28.70;79.50
10572;DHT22;5334;48.928;12.704;2022-07-29T13:23:35;28.70;79.90
10572;DHT22;5334;48.928;12.704;2022-07-29T13:26:08;28.80;80.20
10572;DHT22;5334;48.928;12.704;2022-07-29T13:28:34;28.90;79.60
10572;DHT22;5334;48.928;12.704;2022-07-29T13:31:00;29.10;80.00
10572;DHT22;5334;48.928;12.704;2022-07-29T13:33:26;29.50;78.90
10572;DHT22;5334;48.928;12.704;2022-07-29T13:35:52;29.90;78.10
10572;DHT22;5334;48.928;12.704;2022-07-29T13:38:18;30.20;77.50
10572;DHT22;5334;48.928;12.704;2022-07-29T13:40:43;30.40;76.80
10572;DHT22;5334;48.928;12.704;2022-07-29T13:43:10;30.50;76.10
10572;DHT22;5334;48.928;12.704;2022-07-29T13:45:36;30.60;75.80
10572;DHT22;5334;48.928;12.704;2022-07-29T13:48:01;30.50;75.30
10572;DHT22;5334;48.928;12.704;2022-07-29T13:50:27;30.70;75.60
10572;DHT22;5334;48.928;12.704;2022-07-29T13:52:53;31.00;76.10
10572;DHT22;5334;48.928;12.704;2022-07-29T13:55:19;31.10;74.70
10572;DHT22;5334;48.928;12.704;2022-07-29T13:57:45;31.60;74.80
10572;DHT22;5334;48.928;12.704;2022-07-29T14:00:11;32.00;74.50
10572;DHT22;5334;48.928;12.704;2022-07-29T14:02:37;32.40;71.70
10572;DHT22;5334;48.928;12.704;2022-07-29T14:05:04;32.50;70.20
10572;DHT22;5334;48.928;12.704;2022-07-29T14:07:30;32.70;71.00
10572;DHT22;5334;48.928;12.704;2022-07-29T14:09:56;32.80;69.40
10572;DHT22;5334;48.928;12.704;2022-07-29T14:12:22;32.80;68.10
10572;DHT22;5334;48.928;12.704;2022-07-29T14:14:48;32.80;69.30
10572;DHT22;5334;48.928;12.704;2022-07-29T14:17:14;33.20;69.30
10572;DHT22;5334;48.928;12.704;2022-07-29T14:19:40;32.80;67.30
10572;DHT22;5334;48.928;12.704;2022-07-29T14:22:07;32.30;68.10
10572;DHT22;5334;48.928;12.704;2022-07-29T14:24:33;32.20;69.00
10572;DHT22;5334;48.928;12.704;2022-07-29T14:26:59;32.40;68.70
10572;DHT22;5334;48.928;12.704;2022-07-29T14:29:25;32.60;69.00
10572;DHT22;5334;48.928;12.704;2022-07-29T14:31:51;32.30;68.10
10572;DHT22;5334;48.928;12.704;2022-07-29T14:34:16;32.40;68.40
10572;DHT22;5334;48.928;12.704;2022-07-29T14:36:42;32.70;68.30
10572;DHT22;5334;48.928;12.704;2022-07-29T14:39:08;32.60;67.70
10572;DHT22;5334;48.928;12.704;2022-07-29T14:41:33;32.20;68.40
10572;DHT22;5334;48.928;12.704;2022-07-29T14:43:59;31.70;68.70
10572;DHT22;5334;48.928;12.704;2022-07-29T14:46:26;31.30;69.40
10572;DHT22;5334;48.928;12.704;2022-07-29T14:48:52;31.20;70.30
10572;DHT22;5334;48.928;12.704;2022-07-29T14:51:18;31.00;69.90
10572;DHT22;5334;48.928;12.704;2022-07-29T14:53:44;30.90;70.80
10572;DHT22;5334;48.928;12.704;2022-07-29T14:56:09;30.70;70.70
10572;DHT22;5334;48.928;12.704;2022-07-29T14:58:35;30.70;70.80
10572;DHT22;5334;48.928;12.704;2022-07-29T15:01:01;30.70;70.40
10572;DHT22;5334;48.928;12.704;2022-07-29T15:03:27;30.50;70.10
10572;DHT22;5334;48.928;12.704;2022-07-29T15:05:55;30.50;70.80
10572;DHT22;5334;48.928;12.704;2022-07-29T15:08:21;30.60;71.40
10572;DHT22;5334;48.928;12.704;2022-07-29T15:10:47;30.70;72.60
10572;DHT22;5334;48.928;12.704;2022-07-29T15:13:12;30.60;71.70
10572;DHT22;5334;48.928;12.704;2022-07-29T15:15:38;30.50;72.10
10572;DHT22;5334;48.928;12.704;2022-07-29T15:18:04;30.40;71.20
10572;DHT22;5334;48.928;12.704;2022-07-29T15:20:30;30.50;70.60
10572;DHT22;5334;48.928;12.704;2022-07-29T15:22:56;30.40;71.80
10572;DHT22;5334;48.928;12.704;2022-07-29T15:25:23;30.40;71.50
10572;DHT22;5334;48.928;12.704;2022-07-29T15:27:49;30.40;71.40
10572;DHT22;5334;48.928;12.704;2022-07-29T15:30:14;30.20;71.10
10572;DHT22;5334;48.928;12.704;2022-07-29T15:32:43;30.10;70.80
10572;DHT22;5334;48.928;12.704;2022-07-29T15:35:08;30.00;70.80
10572;DHT22;5334;48.928;12.704;2022-07-29T15:37:36;29.90;71.40
10572;DHT22;5334;48.928;12.704;2022-07-29T15:40:02;29.80;72.40
10572;DHT22;5334;48.928;12.704;2022-07-29T15:42:28;29.80;72.90
10572;DHT22;5334;48.928;12.704;2022-07-29T15:44:53;29.80;73.50
10572;DHT22;5334;48.928;12.704;2022-07-29T15:47:21;29.40;74.90
10572;DHT22;5334;48.928;12.704;2022-07-29T15:49:46;29.20;77.10
10572;DHT22;5334;48.928;12.704;2022-07-29T15:52:12;29.00;77.70
10572;DHT22;5334;48.928;12.704;2022-07-29T15:54:39;28.70;77.80
10572;DHT22;5334;48.928;12.704;2022-07-29T15:57:07;28.50;78.70
10572;DHT22;5334;48.928;12.704;2022-07-29T15:59:33;28.40;79.30
10572;DHT22;5334;48.928;12.704;2022-07-29T16:02:00;28.40;79.10
10572;DHT22;5334;48.928;12.704;2022-07-29T16:04:26;28.50;79.30
10572;DHT22;5334;48.928;12.704;2022-07-29T16:06:51;28.60;79.00
10572;DHT22;5334;48.928;12.704;2022-07-29T16:09:17;28.70;79.40
10572;DHT22;5334;48.928;12.704;2022-07-29T16:11:43;28.80;79.70
10572;DHT22;5334;48.928;12.704;2022-07-29T16:14:11;28.80;79.50
10572;DHT22;5334;48.928;12.704;2022-07-29T16:16:37;28.90;79.50
10572;DHT22;5334;48.928;12.704;2022-07-29T16:19:04;28.90;79.20
10572;DHT22;5334;48.928;12.704;2022-07-29T16:21:30;28.90;80.30
10572;DHT22;5334;48.928;12.704;2022-07-29T16:23:57;29.00;80.00
10572;DHT22;5334;48.928;12.704;2022-07-29T16:26:23;28.90;79.50
10572;DHT22;5334;48.928;12.704;2022-07-29T16:28:48;28.80;79.50
10572;DHT22;5334;48.928;12.704;2022-07-29T16:31:14;28.60;79.50
10572;DHT22;5334;48.928;12.704;2022-07-29T16:33:40;28.40;80.10
10572;DHT22;5334;48.928;12.704;2022-07-29T16:36:06;28.30;81.80
10572;DHT22;5334;48.928;12.704;2022-07-29T16:38:31;28.10;83.50
10572;DHT22;5334;48.928;12.704;2022-07-29T16:40:57;27.80;85.70
10572;DHT22;5334;48.928;12.704;2022-07-29T16:43:23;27.20;86.80